createdAt,value
2019-04-20T00:01:03.468Z,12.20
2019-04-20T00:02:13.727Z,12.20
2019-04-20T00:03:13.901Z,12.20
2019-04-20T00:04:23.435Z,12.20
2019-04-20T00:05:25.374Z,12.20
2019-04-20T00:06:32.618Z,12.20
2019-04-20T00:07:37.566Z,12.20
2019-04-20T00:08:43.126Z,12.20
2019-04-20T00:09:55.335Z,12.20
2019-04-20T00:11:02.621Z,12.10
2019-04-20T00:12:08.706Z,12.10
2019-04-20T00:13:16.369Z,12.10
2019-04-20T00:14:17.332Z,12.10
2019-04-20T00:15:19.733Z,12.00
2019-04-20T00:16:25.052Z,12.00
2019-04-20T00:17:30.525Z,12.00
2019-04-20T00:18:43.049Z,12.00
2019-04-20T00:19:47.013Z,12.00
2019-04-20T00:20:57.713Z,12.00
2019-04-20T00:22:06.218Z,12.10
2019-04-20T00:23:36.757Z,12.00
2019-04-20T00:24:49.647Z,12.00
2019-04-20T00:26:51.124Z,12.00
2019-04-20T00:27:50.245Z,12.00
2019-04-20T00:28:55.914Z,12.00
2019-04-20T00:30:03.329Z,12.00
2019-04-20T00:31:05.560Z,11.90
2019-04-20T00:32:06.252Z,11.90
2019-04-20T00:33:09.590Z,11.90
2019-04-20T00:34:16.841Z,11.90
2019-04-20T00:35:14.678Z,11.90
2019-04-20T00:36:20.152Z,11.90
2019-04-20T00:37:25.386Z,11.90
2019-04-20T00:38:35.190Z,11.80
2019-04-20T00:39:36.146Z,11.80
2019-04-20T00:40:41.294Z,11.80
2019-04-20T00:41:52.149Z,11.80
2019-04-20T00:42:55.054Z,11.80
2019-04-20T00:44:06.160Z,11.70
2019-04-20T00:45:15.391Z,11.80
2019-04-20T00:46:18.339Z,11.70
2019-04-20T00:47:30.991Z,11.70
2019-04-20T00:48:33.759Z,11.70
2019-04-20T00:49:41.356Z,11.70
2019-04-20T00:50:49.093Z,11.70
2019-04-20T00:52:00.488Z,11.70
2019-04-20T00:53:01.975Z,11.60
2019-04-20T00:53:55.262Z,11.60
2019-04-20T00:54:58.093Z,11.60
2019-04-20T00:56:03.420Z,11.60
2019-04-20T00:57:21.741Z,11.70
2019-04-20T00:58:20.080Z,11.70
2019-04-20T00:59:31.608Z,11.70
2019-04-20T01:00:40.714Z,11.70
2019-04-20T01:01:52.140Z,11.60
2019-04-20T01:02:53.064Z,11.60
2019-04-20T01:04:07.157Z,11.60
2019-04-20T01:05:10.966Z,11.70
2019-04-20T01:06:24.813Z,11.70
2019-04-20T01:07:32.878Z,11.70
2019-04-20T01:08:44.885Z,11.70
2019-04-20T01:10:04.722Z,11.70
2019-04-20T01:11:10.250Z,11.60
2019-04-20T01:12:21.030Z,11.50
2019-04-20T01:13:23.898Z,11.60
2019-04-20T01:14:36.122Z,11.50
2019-04-20T01:15:46.364Z,11.50
2019-04-20T01:16:47.274Z,11.50
2019-04-20T01:17:44.669Z,11.50
2019-04-20T01:18:48.819Z,11.50
2019-04-20T01:19:54.095Z,11.50
2019-04-20T01:21:06.550Z,11.40
2019-04-20T01:22:10.244Z,11.40
2019-04-20T01:23:14.352Z,11.40
2019-04-20T01:24:24.804Z,11.40
2019-04-20T01:25:29.969Z,11.40
2019-04-20T01:26:29.431Z,11.50
2019-04-20T01:27:51.536Z,11.40
2019-04-20T01:28:54.251Z,11.40
2019-04-20T01:29:50.935Z,11.40
2019-04-20T01:31:09.235Z,11.40
2019-04-20T01:32:14.281Z,11.40
2019-04-20T01:33:16.019Z,11.40
2019-04-20T01:34:26.604Z,11.30
2019-04-20T01:35:38.186Z,11.30
2019-04-20T01:36:40.674Z,11.30
2019-04-20T01:37:36.455Z,11.40
2019-04-20T01:38:47.288Z,11.30
2019-04-20T01:39:48.047Z,11.30
2019-04-20T01:40:46.588Z,11.30
2019-04-20T01:41:51.943Z,11.20
2019-04-20T01:42:57.279Z,11.20
2019-04-20T01:44:02.633Z,11.20
2019-04-20T01:45:14.505Z,11.20
2019-04-20T01:46:18.267Z,11.20
2019-04-20T01:47:19.128Z,11.30
2019-04-20T01:48:28.982Z,11.30
2019-04-20T01:49:33.258Z,11.30
2019-04-20T01:50:38.047Z,11.30
2019-04-20T01:51:53.612Z,11.20
2019-04-20T01:52:58.315Z,11.20
2019-04-20T01:54:15.866Z,11.20
2019-04-20T01:55:44.088Z,11.20
2019-04-20T01:56:43.788Z,11.10
2019-04-20T01:57:58.327Z,11.10
2019-04-20T01:59:30.927Z,11.10
2019-04-20T02:00:35.627Z,11.10
2019-04-20T02:02:03.181Z,11.10
2019-04-20T02:03:40.258Z,11.10
2019-04-20T02:05:06.129Z,11.20
2019-04-20T02:06:10.048Z,11.20
2019-04-20T02:07:11.856Z,11.20
2019-04-20T02:08:20.697Z,11.20
2019-04-20T02:09:25.692Z,11.10
2019-04-20T02:10:37.069Z,11.10
2019-04-20T02:11:38.202Z,11.10
2019-04-20T02:12:42.271Z,11.10
2019-04-20T02:13:52.585Z,11.10
2019-04-20T02:14:57.168Z,11.10
2019-04-20T02:16:05.989Z,11.10
2019-04-20T02:17:18.068Z,11.10
2019-04-20T02:18:22.779Z,11.00
2019-04-20T02:19:31.631Z,11.00
2019-04-20T02:20:44.573Z,11.00
2019-04-20T02:21:47.573Z,11.00
2019-04-20T02:22:51.783Z,10.90
2019-04-20T02:23:48.017Z,10.90
2019-04-20T02:24:46.796Z,10.70
2019-04-20T02:25:52.156Z,10.80
2019-04-20T02:26:57.826Z,10.80
2019-04-20T02:28:22.979Z,10.80
2019-04-20T02:29:30.651Z,10.80
2019-04-20T02:30:53.993Z,10.90
2019-04-20T02:32:08.509Z,11.00
2019-04-20T02:33:09.762Z,10.90
2019-04-20T02:34:29.235Z,10.90
2019-04-20T02:35:58.523Z,11.00
2019-04-20T02:36:58.273Z,11.00
2019-04-20T02:38:15.305Z,11.00
2019-04-20T02:40:47.486Z,10.90
2019-04-20T02:41:44.616Z,10.90
2019-04-20T02:45:17.485Z,10.80
2019-04-20T02:45:58.944Z,10.80
2019-04-20T02:47:19.442Z,10.80
2019-04-20T02:48:15.917Z,10.80
2019-04-20T02:49:33.693Z,10.80
2019-04-20T02:50:30.845Z,10.90
2019-04-20T02:54:06.342Z,10.70
2019-04-20T02:54:53.518Z,10.70
2019-04-20T02:56:19.290Z,10.70
2019-04-20T02:57:05.503Z,10.80
2019-04-20T02:58:07.740Z,10.80
2019-04-20T03:00:20.892Z,10.70
2019-04-20T03:01:36.898Z,10.80
2019-04-20T03:02:38.674Z,10.70
2019-04-20T03:03:37.640Z,10.70
2019-04-20T03:04:45.289Z,10.60
2019-04-20T03:05:58.302Z,10.60
2019-04-20T03:07:05.203Z,10.70
2019-04-20T03:08:13.695Z,10.70
2019-04-20T03:09:21.400Z,10.80
2019-04-20T03:10:39.691Z,10.70
2019-04-20T03:11:42.594Z,10.60
2019-04-20T03:12:39.052Z,10.50
2019-04-20T03:13:41.391Z,10.50
2019-04-20T03:14:47.823Z,10.50
2019-04-20T03:15:54.923Z,10.50
2019-04-20T03:17:03.190Z,10.50
2019-04-20T03:18:12.294Z,10.50
2019-04-20T03:19:12.968Z,10.50
2019-04-20T03:20:23.311Z,10.40
2019-04-20T03:21:35.926Z,10.40
2019-04-20T03:23:02.435Z,10.40
2019-04-20T03:23:50.097Z,10.40
2019-04-20T03:24:53.940Z,10.50
2019-04-20T03:26:11.011Z,10.50
2019-04-20T03:27:16.095Z,10.40
2019-04-20T03:28:25.934Z,10.40
2019-04-20T03:29:47.386Z,10.40
2019-04-20T03:31:47.013Z,10.50
2019-04-20T03:32:58.289Z,10.40
2019-04-20T03:33:41.373Z,10.40
2019-04-20T03:35:43.363Z,10.40
2019-04-20T03:36:50.035Z,10.40
2019-04-20T03:37:51.026Z,10.40
2019-04-20T03:38:54.965Z,10.40
2019-04-20T03:39:55.554Z,10.50
2019-04-20T03:40:59.208Z,10.50
2019-04-20T03:41:55.254Z,10.40
2019-04-20T03:42:59.117Z,10.40
2019-04-20T03:44:09.945Z,10.40
2019-04-20T03:45:15.021Z,10.40
2019-04-20T03:46:19.260Z,10.40
2019-04-20T03:47:30.438Z,10.30
2019-04-20T03:48:41.586Z,10.30
2019-04-20T03:50:14.799Z,10.20
2019-04-20T03:50:57.814Z,10.20
2019-04-20T03:52:24.621Z,10.10
2019-04-20T03:53:38.539Z,10.10
2019-04-20T03:54:39.430Z,10.10
2019-04-20T03:55:52.604Z,10.20
2019-04-20T03:57:32.491Z,10.10
2019-04-20T03:58:29.425Z,10.10
2019-04-20T03:59:55.096Z,10.10
2019-04-20T04:01:27.371Z,10.20
2019-04-20T04:02:50.127Z,10.20
2019-04-20T04:04:59.552Z,10.20
2019-04-20T04:06:07.847Z,10.10
2019-04-20T04:07:01.082Z,10.10
2019-04-20T04:08:15.900Z,10.20
2019-04-20T04:09:22.901Z,10.20
2019-04-20T04:10:28.267Z,10.20
2019-04-20T04:11:39.158Z,10.20
2019-04-20T04:13:03.558Z,10.10
2019-04-20T04:14:09.321Z,10.10
2019-04-20T04:15:14.707Z,10.00
2019-04-20T04:16:22.008Z,9.90
2019-04-20T04:17:31.891Z,9.80
2019-04-20T04:18:37.254Z,9.80
2019-04-20T04:19:40.238Z,9.80
2019-04-20T04:20:49.761Z,9.90
2019-04-20T04:22:03.960Z,9.90
2019-04-20T04:23:09.974Z,9.90
2019-04-20T04:24:12.848Z,9.90
2019-04-20T04:25:22.224Z,9.80
2019-04-20T04:26:30.613Z,9.80
2019-04-20T04:27:40.511Z,9.90
2019-04-20T04:28:40.968Z,9.90
2019-04-20T04:29:51.223Z,10.00
2019-04-20T04:30:59.446Z,10.00
2019-04-20T04:32:15.807Z,10.10
2019-04-20T04:33:32.637Z,10.10
2019-04-20T04:34:14.832Z,10.10
2019-04-20T04:35:16.631Z,10.10
2019-04-20T04:36:21.243Z,10.10
2019-04-20T04:37:32.479Z,10.00
2019-04-20T04:38:42.499Z,10.10
2019-04-20T04:39:48.567Z,10.10
2019-04-20T04:41:01.958Z,10.00
2019-04-20T04:42:07.409Z,10.00
2019-04-20T04:43:06.883Z,10.00
2019-04-20T04:44:09.953Z,9.90
2019-04-20T04:45:01.575Z,9.90
2019-04-20T04:46:01.783Z,10.00
2019-04-20T04:47:08.703Z,10.00
2019-04-20T04:48:14.667Z,10.00
2019-04-20T04:49:25.768Z,10.10
2019-04-20T04:50:27.872Z,10.10
2019-04-20T04:51:42.675Z,10.20
2019-04-20T04:52:47.833Z,10.20
2019-04-20T04:53:54.307Z,10.30
2019-04-20T04:54:58.731Z,10.30
2019-04-20T04:56:01.332Z,10.30
2019-04-20T04:57:01.013Z,10.30
2019-04-20T04:58:06.465Z,10.30
2019-04-20T04:59:10.931Z,10.40
2019-04-20T05:00:25.588Z,10.30
2019-04-20T05:01:28.856Z,10.30
2019-04-20T05:02:40.454Z,10.30
2019-04-20T05:04:03.275Z,10.10
2019-04-20T05:05:19.303Z,10.10
2019-04-20T05:06:29.214Z,10.10
2019-04-20T05:07:45.116Z,10.00
2019-04-20T05:08:41.971Z,10.00
2019-04-20T05:09:41.539Z,10.10
2019-04-20T05:10:47.881Z,10.10
2019-04-20T05:12:02.326Z,10.20
2019-04-20T05:12:58.801Z,10.20
2019-04-20T05:14:07.455Z,10.10
2019-04-20T05:15:22.346Z,10.20
2019-04-20T05:16:39.850Z,10.10
2019-04-20T05:17:48.002Z,10.10
2019-04-20T05:18:50.203Z,10.10
2019-04-20T05:19:52.621Z,10.20
2019-04-20T05:21:04.397Z,10.20
2019-04-20T05:22:14.908Z,10.30
2019-04-20T05:23:31.901Z,10.30
2019-04-20T05:24:54.737Z,10.40
2019-04-20T05:26:09.813Z,10.40
2019-04-20T05:27:33.518Z,10.40
2019-04-20T05:28:27.571Z,10.30
2019-04-20T05:29:25.381Z,10.40
2019-04-20T05:30:26.806Z,10.30
2019-04-20T05:31:41.420Z,10.40
2019-04-20T05:32:46.934Z,10.40
2019-04-20T05:34:08.532Z,10.40
2019-04-20T05:35:12.156Z,10.40
2019-04-20T05:36:12.735Z,10.40
2019-04-20T05:37:27.393Z,10.50
2019-04-20T05:38:38.242Z,10.50
2019-04-20T05:39:56.237Z,10.50
2019-04-20T05:40:39.020Z,10.60
2019-04-20T05:41:41.809Z,10.60
2019-04-20T05:42:54.474Z,10.70
2019-04-20T05:44:05.060Z,10.70
2019-04-20T05:45:11.496Z,10.70
2019-04-20T05:46:22.372Z,10.80
2019-04-20T05:47:29.193Z,10.80
2019-04-20T05:48:26.081Z,10.90
2019-04-20T05:49:34.580Z,10.90
2019-04-20T05:50:43.530Z,10.90
2019-04-20T05:51:48.683Z,11.00
2019-04-20T05:53:04.807Z,11.10
2019-04-20T05:54:02.642Z,11.10
2019-04-20T05:55:13.112Z,11.10
2019-04-20T05:56:08.429Z,11.20
2019-04-20T05:57:25.200Z,11.20
2019-04-20T05:58:27.656Z,11.20
2019-04-20T05:59:28.401Z,11.30
2019-04-20T06:00:44.032Z,11.40
2019-04-20T06:01:47.519Z,11.40
2019-04-20T06:02:51.417Z,11.40
2019-04-20T06:03:53.855Z,11.50
2019-04-20T06:05:05.658Z,11.50
2019-04-20T06:06:10.710Z,11.50
2019-04-20T06:07:15.543Z,11.60
2019-04-20T06:08:34.158Z,11.60
2019-04-20T06:09:27.569Z,11.70
2019-04-20T06:10:38.205Z,11.70
2019-04-20T06:11:44.479Z,11.70
2019-04-20T06:12:48.391Z,11.70
2019-04-20T06:14:03.700Z,11.70
2019-04-20T06:15:21.125Z,11.80
2019-04-20T06:16:41.003Z,11.80
2019-04-20T06:18:12.326Z,11.90
2019-04-20T06:20:33.400Z,11.90
2019-04-20T06:21:48.602Z,11.90
2019-04-20T06:22:51.342Z,11.90
2019-04-20T06:24:24.914Z,12.00
2019-04-20T06:25:53.197Z,12.00
2019-04-20T06:26:59.436Z,12.00
2019-04-20T06:28:01.006Z,12.10
2019-04-20T06:29:00.046Z,12.10
2019-04-20T06:30:05.927Z,12.10
2019-04-20T06:31:18.936Z,12.10
2019-04-20T06:32:28.853Z,12.10
2019-04-20T06:34:19.946Z,12.20
2019-04-20T06:35:25.922Z,12.20
2019-04-20T06:36:22.144Z,12.30
2019-04-20T06:37:23.424Z,12.30
2019-04-20T06:39:37.955Z,12.40
2019-04-20T06:42:08.389Z,12.40
2019-04-20T06:42:54.924Z,12.50
2019-04-20T06:44:02.590Z,12.50
2019-04-20T06:45:07.058Z,12.50
2019-04-20T06:46:15.207Z,12.50
2019-04-20T06:47:18.909Z,12.60
2019-04-20T06:48:33.034Z,12.60
2019-04-20T06:50:30.241Z,12.60
2019-04-20T06:51:47.487Z,12.60
2019-04-20T06:53:16.424Z,12.70
2019-04-20T06:54:12.439Z,12.70
2019-04-20T06:55:35.066Z,12.70
2019-04-20T06:56:42.567Z,12.70
2019-04-20T06:57:45.387Z,12.70
2019-04-20T06:58:49.839Z,12.70
2019-04-20T07:01:03.701Z,12.80
2019-04-20T07:02:18.694Z,12.80
2019-04-20T07:03:17.790Z,12.80
2019-04-20T07:04:38.937Z,12.80
2019-04-20T07:05:27.361Z,12.90
2019-04-20T07:07:45.463Z,13.00
2019-04-20T07:08:56.817Z,13.00
2019-04-20T07:09:59.824Z,13.00
2019-04-20T07:11:05.854Z,13.00
2019-04-20T07:12:02.915Z,13.10
2019-04-20T07:13:02.686Z,13.10
2019-04-20T07:14:02.910Z,13.10
2019-04-20T07:15:21.389Z,13.20
2019-04-20T07:16:55.747Z,13.20
2019-04-20T07:19:15.288Z,13.30
2019-04-20T07:20:51.631Z,13.40
2019-04-20T07:23:23.806Z,13.40
2019-04-20T07:24:28.713Z,13.50
2019-04-20T07:25:33.781Z,13.50
2019-04-20T07:26:41.731Z,13.50
2019-04-20T07:27:41.579Z,13.50
2019-04-20T07:28:53.601Z,13.50
2019-04-20T07:30:07.630Z,13.60
2019-04-20T07:31:01.759Z,13.60
2019-04-20T07:32:01.796Z,13.60
2019-04-20T07:33:17.264Z,13.60
2019-04-20T07:34:21.449Z,13.70
2019-04-20T07:35:25.047Z,13.70
2019-04-20T07:36:32.270Z,13.70
2019-04-20T07:38:03.032Z,13.70
2019-04-20T07:38:50.025Z,13.70
2019-04-20T07:39:55.774Z,13.80
2019-04-20T07:40:56.274Z,13.70
2019-04-20T07:42:08.489Z,13.70
2019-04-20T07:43:04.676Z,13.70
2019-04-20T07:44:24.531Z,13.80
2019-04-20T07:45:26.128Z,13.80
2019-04-20T07:46:40.716Z,13.80
2019-04-20T07:47:40.481Z,13.80
2019-04-20T07:48:39.565Z,13.80
2019-04-20T07:49:40.420Z,13.80
2019-04-20T07:50:46.231Z,13.80
2019-04-20T07:51:42.038Z,13.90
2019-04-20T07:52:54.138Z,13.80
2019-04-20T07:54:21.933Z,13.80
2019-04-20T07:56:28.418Z,13.90
2019-04-20T07:57:24.437Z,13.90
2019-04-20T07:58:25.259Z,14.00
2019-04-20T07:59:33.977Z,14.00
2019-04-20T08:00:55.223Z,14.00
2019-04-20T08:02:08.507Z,14.00
2019-04-20T08:03:29.383Z,14.00
2019-04-20T08:04:32.518Z,14.00
2019-04-20T08:05:41.855Z,14.10
2019-04-20T08:06:44.322Z,14.00
2019-04-20T08:07:54.087Z,14.10
2019-04-20T08:09:05.653Z,14.10
2019-04-20T08:09:57.427Z,14.10
2019-04-20T08:11:13.790Z,14.10
2019-04-20T08:12:34.032Z,14.10
2019-04-20T08:14:39.920Z,14.20
2019-04-20T08:16:58.733Z,14.20
2019-04-20T08:18:02.437Z,14.30
2019-04-20T08:19:01.405Z,14.30
2019-04-20T08:20:07.583Z,14.30
2019-04-20T08:21:16.695Z,14.30
2019-04-20T08:22:23.060Z,14.30
2019-04-20T08:23:40.275Z,14.30
2019-04-20T08:24:27.916Z,14.20
2019-04-20T08:25:33.114Z,14.30
2019-04-20T08:26:30.997Z,14.40
2019-04-20T08:27:47.239Z,14.40
2019-04-20T08:29:17.930Z,14.40
2019-04-20T08:30:37.804Z,14.40
2019-04-20T08:32:11.700Z,14.30
2019-04-20T08:33:23.172Z,14.30
2019-04-20T08:34:31.346Z,14.30
2019-04-20T08:35:46.410Z,14.40
2019-04-20T08:36:47.882Z,14.30
2019-04-20T08:38:12.278Z,14.30
2019-04-20T08:40:05.324Z,14.40
2019-04-20T08:41:02.857Z,14.40
2019-04-20T08:42:13.018Z,14.40
2019-04-20T08:43:33.623Z,14.40
2019-04-20T08:44:48.004Z,14.50
2019-04-20T08:45:34.923Z,14.50
2019-04-20T08:46:44.028Z,14.40
2019-04-20T08:48:07.747Z,14.40
2019-04-20T08:48:51.013Z,14.40
2019-04-20T08:50:29.943Z,14.50
2019-04-20T08:51:46.305Z,14.40
2019-04-20T08:53:03.787Z,14.50
2019-04-20T08:53:53.616Z,14.40
2019-04-20T08:54:58.048Z,14.50
2019-04-20T08:55:55.707Z,14.60
2019-04-20T08:56:53.687Z,14.60
2019-04-20T08:57:54.525Z,14.70
2019-04-20T08:58:59.620Z,14.70
2019-04-20T09:00:07.092Z,14.70
2019-04-20T09:01:18.433Z,14.70
2019-04-20T09:02:18.829Z,14.70
2019-04-20T09:03:30.149Z,14.70
2019-04-20T09:04:38.770Z,14.70
2019-04-20T09:05:48.970Z,14.80
2019-04-20T09:06:53.402Z,14.80
2019-04-20T09:08:00.585Z,14.70
2019-04-20T09:09:11.677Z,14.70
2019-04-20T09:10:25.675Z,14.70
2019-04-20T09:11:23.227Z,14.70
2019-04-20T09:12:33.226Z,14.60
2019-04-20T09:13:28.165Z,14.70
2019-04-20T09:14:25.589Z,14.70
2019-04-20T09:15:32.050Z,14.70
2019-04-20T09:16:45.642Z,14.70
2019-04-20T09:17:50.598Z,14.70
2019-04-20T09:19:00.013Z,14.70
2019-04-20T09:20:06.277Z,14.60
2019-04-20T09:21:15.173Z,14.60
2019-04-20T09:23:02.498Z,14.70
2019-04-20T09:24:22.860Z,14.70
2019-04-20T09:25:43.172Z,14.60
2019-04-20T09:26:25.083Z,14.70
2019-04-20T09:27:24.552Z,14.70
2019-04-20T09:28:35.445Z,14.80
2019-04-20T09:29:44.891Z,14.80
2019-04-20T09:30:57.185Z,14.80
2019-04-20T09:32:16.786Z,14.80
2019-04-20T09:33:41.798Z,14.80
2019-04-20T09:34:47.834Z,14.80
2019-04-20T09:35:50.823Z,14.80
2019-04-20T09:36:53.818Z,14.80
2019-04-20T09:38:11.323Z,14.80
2019-04-20T09:39:18.623Z,14.80
2019-04-20T09:40:43.467Z,14.80
2019-04-20T09:42:04.046Z,14.80
2019-04-20T09:43:02.748Z,14.80
2019-04-20T09:44:07.185Z,15.20
2019-04-20T09:45:20.036Z,15.20
2019-04-20T09:46:19.964Z,15.20
2019-04-20T09:47:32.676Z,15.20
2019-04-20T09:48:38.790Z,15.20
2019-04-20T09:49:49.612Z,15.20
2019-04-20T09:51:05.009Z,15.30
2019-04-20T09:52:01.444Z,15.30
2019-04-20T09:53:08.988Z,15.30
2019-04-20T09:54:18.878Z,15.30
2019-04-20T09:55:23.243Z,15.40
2019-04-20T09:56:28.136Z,15.70
2019-04-20T09:57:39.066Z,15.80
2019-04-20T09:58:45.418Z,15.80
2019-04-20T09:59:49.892Z,15.80
2019-04-20T10:00:59.516Z,15.80
2019-04-20T10:02:02.851Z,15.80
2019-04-20T10:02:58.314Z,16.00
2019-04-20T10:04:03.451Z,16.10
2019-04-20T10:05:09.338Z,16.10
2019-04-20T10:06:13.866Z,16.10
2019-04-20T10:07:23.441Z,16.10
2019-04-20T10:08:24.101Z,16.20
2019-04-20T10:09:34.674Z,16.20
2019-04-20T10:10:40.499Z,16.30
2019-04-20T10:11:43.430Z,16.40
2019-04-20T10:12:47.875Z,16.30
2019-04-20T10:13:52.360Z,16.40
2019-04-20T10:15:02.098Z,16.40
2019-04-20T10:16:03.821Z,16.40
2019-04-20T10:17:08.037Z,16.40
2019-04-20T10:18:12.339Z,16.50
2019-04-20T10:19:20.571Z,16.60
2019-04-20T10:20:29.684Z,16.60
2019-04-20T10:21:29.804Z,16.50
2019-04-20T10:22:34.365Z,16.50
2019-04-20T10:23:38.753Z,16.50
2019-04-20T10:24:45.793Z,16.40
2019-04-20T10:25:49.254Z,16.40
2019-04-20T10:26:54.570Z,16.40
2019-04-20T10:27:58.959Z,16.40
2019-04-20T10:29:03.580Z,16.40
2019-04-20T10:30:08.419Z,16.40
2019-04-20T10:31:12.806Z,16.40
2019-04-20T10:32:17.851Z,16.50
2019-04-20T10:33:23.775Z,16.50
2019-04-20T10:34:28.516Z,16.70
2019-04-20T10:35:33.828Z,16.80
2019-04-20T10:37:03.877Z,16.80
2019-04-20T10:38:13.753Z,16.90
2019-04-20T10:39:20.376Z,17.00
2019-04-20T10:40:37.799Z,16.90
2019-04-20T10:41:39.966Z,16.90
2019-04-20T10:42:38.234Z,16.90
2019-04-20T10:43:42.930Z,16.90
2019-04-20T10:44:48.287Z,16.90
2019-04-20T10:45:53.053Z,16.80
2019-04-20T10:46:58.681Z,16.80
2019-04-20T10:48:03.442Z,16.80
2019-04-20T10:49:09.509Z,16.80
2019-04-20T10:50:14.092Z,16.80
2019-04-20T10:51:19.742Z,16.80
2019-04-20T10:52:23.943Z,16.80
2019-04-20T10:53:28.083Z,16.70
2019-04-20T10:54:34.384Z,16.80
2019-04-20T10:55:39.721Z,16.70
2019-04-20T10:56:44.093Z,16.70
2019-04-20T10:57:49.317Z,16.80
2019-04-20T10:58:53.918Z,16.80
2019-04-20T10:59:59.539Z,16.80
2019-04-20T11:01:04.014Z,16.80
2019-04-20T11:02:08.291Z,16.80
2019-04-20T11:03:15.575Z,17.00
2019-04-20T11:04:20.911Z,17.00
2019-04-20T11:05:26.422Z,17.00
2019-04-20T11:06:30.774Z,17.00
2019-04-20T11:07:35.020Z,17.10
2019-04-20T11:08:40.263Z,17.10
2019-04-20T11:09:44.880Z,17.00
2019-04-20T11:11:00.286Z,17.00
2019-04-20T11:11:56.363Z,17.10
2019-04-20T11:13:01.241Z,17.20
2019-04-20T11:14:12.570Z,17.30
2019-04-20T11:15:12.525Z,17.30
2019-04-20T11:16:17.873Z,17.60
2019-04-20T11:17:22.515Z,17.70
2019-04-20T11:18:27.373Z,17.70
2019-04-20T11:19:31.767Z,17.70
2019-04-20T11:20:37.213Z,17.60
2019-04-20T11:21:41.637Z,17.50
2019-04-20T11:22:46.379Z,17.40
2019-04-20T11:23:52.024Z,17.40
2019-04-20T11:24:56.584Z,17.30
2019-04-20T11:26:02.147Z,17.30
2019-04-20T11:27:07.801Z,17.30
2019-04-20T11:28:12.422Z,17.30
2019-04-20T11:29:18.094Z,17.40
2019-04-20T11:30:22.556Z,17.40
2019-04-20T11:31:35.399Z,17.50
2019-04-20T11:32:33.869Z,17.40
2019-04-20T11:33:38.476Z,17.40
2019-04-20T11:34:43.732Z,17.30
2019-04-20T11:35:49.850Z,17.30
2019-04-20T11:36:55.069Z,17.30
2019-04-20T11:38:00.860Z,17.20
2019-04-20T11:39:09.115Z,17.20
2019-04-20T11:40:14.927Z,17.30
2019-04-20T11:41:25.591Z,17.40
2019-04-20T11:42:25.893Z,17.40
2019-04-20T11:43:31.414Z,17.40
2019-04-20T11:44:36.581Z,17.40
2019-04-20T11:45:42.624Z,17.40
2019-04-20T11:46:48.314Z,17.40
2019-04-20T11:47:53.768Z,17.40
2019-04-20T11:48:59.367Z,17.50
2019-04-20T11:50:04.426Z,17.50
2019-04-20T11:51:09.522Z,17.50
2019-04-20T11:52:16.882Z,17.40
2019-04-20T11:53:19.833Z,17.50
2019-04-20T11:54:24.381Z,17.80
2019-04-20T11:55:28.691Z,18.00
2019-04-20T11:56:37.951Z,18.00
2019-04-20T11:57:39.528Z,18.10
2019-04-20T11:58:44.880Z,18.10
2019-04-20T11:59:50.813Z,18.10
2019-04-20T12:01:03.179Z,18.60
2019-04-20T12:02:21.498Z,19.00
2019-04-20T12:03:31.117Z,19.00
2019-04-20T12:04:41.362Z,18.80
2019-04-20T12:05:44.494Z,18.70
2019-04-20T12:06:46.643Z,18.70
2019-04-20T12:07:56.479Z,18.60
2019-04-20T12:09:01.091Z,18.40
2019-04-20T12:10:12.089Z,18.20
2019-04-20T12:11:24.066Z,18.00
2019-04-20T12:12:29.347Z,17.80
2019-04-20T12:13:24.854Z,17.80
2019-04-20T12:14:30.452Z,17.70
2019-04-20T12:15:36.924Z,17.60
2019-04-20T12:16:41.647Z,17.50
2019-04-20T12:17:47.343Z,17.40
2019-04-20T12:18:52.497Z,17.60
2019-04-20T12:19:57.753Z,17.80
2019-04-20T12:21:03.036Z,17.80
2019-04-20T12:22:07.658Z,17.80
2019-04-20T12:23:12.686Z,17.70
2019-04-20T12:24:18.447Z,17.60
2019-04-20T12:25:23.721Z,17.60
2019-04-20T12:26:29.013Z,17.50
2019-04-20T12:27:34.498Z,17.40
2019-04-20T12:28:40.063Z,17.40
2019-04-20T12:29:45.699Z,17.40
2019-04-20T12:30:51.374Z,17.40
2019-04-20T12:31:59.177Z,17.40
2019-04-20T12:33:03.478Z,17.40
2019-04-20T12:34:08.602Z,17.40
2019-04-20T12:35:14.096Z,17.40
2019-04-20T12:36:18.450Z,17.30
2019-04-20T12:37:22.919Z,17.30
2019-04-20T12:38:27.456Z,17.40
2019-04-20T12:39:31.681Z,17.50
2019-04-20T12:40:35.935Z,17.50
2019-04-20T12:41:47.147Z,17.60
2019-04-20T12:42:46.649Z,17.70
2019-04-20T12:43:51.942Z,17.60
2019-04-20T12:44:57.683Z,17.60
2019-04-20T12:46:02.284Z,17.50
2019-04-20T12:47:07.763Z,17.50
2019-04-20T12:48:13.391Z,17.40
2019-04-20T12:49:18.022Z,17.40
2019-04-20T12:50:23.661Z,17.40
2019-04-20T12:51:33.868Z,17.40
2019-04-20T12:52:34.672Z,17.40
2019-04-20T12:53:40.475Z,17.40
2019-04-20T12:54:46.258Z,17.40
2019-04-20T12:55:51.033Z,17.40
2019-04-20T12:56:56.315Z,17.60
2019-04-20T12:58:00.694Z,17.60
2019-04-20T12:59:05.685Z,17.60
2019-04-20T13:00:11.822Z,17.60
2019-04-20T13:01:18.720Z,17.50
2019-04-20T13:02:23.178Z,17.80
2019-04-20T13:03:27.693Z,18.30
2019-04-20T13:04:33.257Z,18.70
2019-04-20T13:05:38.095Z,18.80
2019-04-20T13:06:42.980Z,18.70
2019-04-20T13:07:53.201Z,18.60
2019-04-20T13:08:57.313Z,18.40
2019-04-20T13:10:03.583Z,18.20
2019-04-20T13:11:12.895Z,18.20
2019-04-20T13:12:40.576Z,18.40
2019-04-20T13:14:14.524Z,18.30
2019-04-20T13:15:46.683Z,18.20
2019-04-20T13:16:52.297Z,18.10
2019-04-20T13:17:57.227Z,18.40
2019-04-20T13:19:03.730Z,18.50
2019-04-20T13:20:09.965Z,18.60
2019-04-20T13:21:14.386Z,18.70
2019-04-20T13:22:19.019Z,19.00
2019-04-20T13:23:24.521Z,19.40
2019-04-20T13:24:29.267Z,19.60
2019-04-20T13:25:34.720Z,19.30
2019-04-20T13:26:40.551Z,19.10
2019-04-20T13:27:45.091Z,19.30
2019-04-20T13:28:50.580Z,19.40
2019-04-20T13:29:55.960Z,19.40
2019-04-20T13:31:00.337Z,19.20
2019-04-20T13:32:05.473Z,19.20
2019-04-20T13:33:10.141Z,19.00
2019-04-20T13:34:15.138Z,18.80
2019-04-20T13:35:20.567Z,18.70
2019-04-20T13:36:26.136Z,18.60
2019-04-20T13:37:31.830Z,18.40
2019-04-20T13:38:36.300Z,18.30
2019-04-20T13:39:40.861Z,18.20
2019-04-20T13:40:45.926Z,18.10
2019-04-20T13:42:02.414Z,18.10
2019-04-20T13:42:56.266Z,18.00
2019-04-20T13:44:02.020Z,18.00
2019-04-20T13:45:08.793Z,18.00
2019-04-20T13:46:13.396Z,17.90
2019-04-20T13:47:19.052Z,17.90
2019-04-20T13:48:24.707Z,17.90
2019-04-20T13:49:29.195Z,17.90
2019-04-20T13:50:33.891Z,17.90
2019-04-20T13:51:39.073Z,18.10
2019-04-20T13:52:44.700Z,18.40
2019-04-20T13:53:48.993Z,18.30
2019-04-20T13:54:53.950Z,18.30
2019-04-20T13:55:59.216Z,18.60
2019-04-20T13:57:04.068Z,19.00
2019-04-20T13:58:31.571Z,19.00
2019-04-20T13:59:48.996Z,18.90
2019-04-20T14:01:10.310Z,18.90
2019-04-20T14:02:28.882Z,18.80
2019-04-20T14:03:34.510Z,18.90
2019-04-20T14:04:48.705Z,18.90
2019-04-20T14:05:53.151Z,18.80
2019-04-20T14:06:59.483Z,18.60
2019-04-20T14:08:07.456Z,18.40
2019-04-20T14:09:12.579Z,18.30
2019-04-20T14:10:17.486Z,18.40
2019-04-20T14:11:23.120Z,18.50
2019-04-20T14:12:34.940Z,18.40
2019-04-20T14:13:40.369Z,18.30
2019-04-20T14:14:41.264Z,18.30
2019-04-20T14:15:47.035Z,18.20
2019-04-20T14:16:52.837Z,18.10
2019-04-20T14:17:57.328Z,18.10
2019-04-20T14:19:02.894Z,18.10
2019-04-20T14:20:13.211Z,18.10
2019-04-20T14:21:14.248Z,18.00
2019-04-20T14:22:18.838Z,18.00
2019-04-20T14:23:23.278Z,18.10
2019-04-20T14:24:28.912Z,18.20
2019-04-20T14:25:33.327Z,18.60
2019-04-20T14:26:40.351Z,18.70
2019-04-20T14:27:44.632Z,18.70
2019-04-20T14:28:49.198Z,18.50
2019-04-20T14:29:55.018Z,18.40
2019-04-20T14:30:59.479Z,18.30
2019-04-20T14:32:05.495Z,18.20
2019-04-20T14:33:10.607Z,18.10
2019-04-20T14:34:15.216Z,18.10
2019-04-20T14:35:20.719Z,18.10
2019-04-20T14:36:26.476Z,18.10
2019-04-20T14:37:30.990Z,18.00
2019-04-20T14:38:36.185Z,18.10
2019-04-20T14:39:40.630Z,18.00
2019-04-20T14:40:46.204Z,18.00
2019-04-20T14:41:51.916Z,18.10
2019-04-20T14:42:57.286Z,18.10
2019-04-20T14:44:03.727Z,18.10
2019-04-20T14:45:08.904Z,18.10
2019-04-20T14:46:14.597Z,18.10
2019-04-20T14:47:19.317Z,18.00
2019-04-20T14:48:24.900Z,18.10
2019-04-20T14:49:30.532Z,18.10
2019-04-20T14:50:35.890Z,18.10
2019-04-20T14:51:41.581Z,18.10
2019-04-20T14:52:47.181Z,18.00
2019-04-20T14:53:51.969Z,18.00